createdAt,value
2022-10-14T00:02:19.594Z,21.40
2022-10-14T00:07:23.500Z,21.98
2022-10-14T00:12:27.112Z,24.85
2022-10-14T00:17:31.984Z,21.30
2022-10-14T00:22:35.676Z,22.20
2022-10-14T00:27:39.193Z,20.75
2022-10-14T00:32:50.008Z,18.98
2022-10-14T00:37:53.717Z,17.90
2022-10-14T00:42:58.091Z,20.58
2022-10-14T00:48:03.263Z,16.35
2022-10-14T00:53:06.888Z,15.07
2022-10-14T00:58:11.413Z,14.93
2022-10-14T01:03:22.926Z,15.93
2022-10-14T01:08:34.376Z,16.42
2022-10-14T01:13:42.918Z,17.42
2022-10-14T01:19:03.322Z,17.17
2022-10-14T01:24:32.120Z,18.30
2022-10-14T01:30:12.046Z,17.67
2022-10-14T01:35:25.730Z,20.17
2022-10-14T01:40:35.751Z,19.55
2022-10-14T01:45:44.991Z,18.98
2022-10-14T01:50:53.092Z,19.67
2022-10-14T01:55:59.716Z,20.75
2022-10-14T02:01:05.756Z,21.42
2022-10-14T02:06:13.320Z,22.88
2022-10-14T02:11:19.746Z,22.27
2022-10-14T02:16:33.935Z,23.13
2022-10-14T02:21:42.712Z,25.77
2022-10-14T02:26:48.847Z,22.30
2022-10-14T02:31:55.646Z,23.15
2022-10-14T02:37:00.786Z,21.48
2022-10-14T02:42:09.343Z,23.40
2022-10-14T02:47:14.221Z,24.67
2022-10-14T02:52:17.693Z,27.33
2022-10-14T02:57:21.219Z,23.27
2022-10-14T03:02:26.647Z,28.95
2022-10-14T03:07:30.730Z,28.55
2022-10-14T03:12:38.513Z,29.90
2022-10-14T03:17:48.337Z,32.45
2022-10-14T03:22:55.765Z,31.08
2022-10-14T03:27:59.873Z,33.00
2022-10-14T03:33:20.426Z,34.67
2022-10-14T03:38:44.332Z,31.02
2022-10-14T03:43:56.898Z,32.55
2022-10-14T03:49:02.271Z,32.63
2022-10-14T03:54:06.793Z,29.95
2022-10-14T03:59:10.343Z,34.55
2022-10-14T04:04:15.348Z,34.63
2022-10-14T04:09:19.108Z,35.60
2022-10-14T04:14:24.379Z,38.22
2022-10-14T04:19:29.421Z,35.97
2022-10-14T04:24:32.987Z,36.95
2022-10-14T04:29:36.539Z,38.33
2022-10-14T04:34:49.382Z,38.80
2022-10-14T04:39:56.645Z,39.15
2022-10-14T04:45:00.194Z,37.85
2022-10-14T04:50:18.449Z,42.08
2022-10-14T04:55:41.814Z,35.17
2022-10-14T05:00:45.588Z,41.72
2022-10-14T05:06:03.692Z,36.60
2022-10-14T05:11:07.394Z,41.25
2022-10-14T05:16:19.643Z,40.42
2022-10-14T05:21:24.576Z,37.70
2022-10-14T05:26:48.628Z,37.88
2022-10-14T05:31:52.711Z,39.22
2022-10-14T05:37:06.669Z,36.70
2022-10-14T05:42:17.569Z,35.75
2022-10-14T05:47:21.467Z,35.85
2022-10-14T05:52:34.219Z,35.03
2022-10-14T05:57:44.404Z,34.83
2022-10-14T06:02:51.379Z,36.83
2022-10-14T06:07:57.230Z,32.70
2022-10-14T06:13:00.736Z,33.42
2022-10-14T06:18:05.179Z,34.40
2022-10-14T06:23:10.794Z,31.20
2022-10-14T06:28:14.384Z,30.13
2022-10-14T06:33:17.943Z,31.35
2022-10-14T06:38:22.883Z,32.90
2022-10-14T06:43:26.589Z,30.02
2022-10-14T06:48:31.833Z,30.08
2022-10-14T06:53:36.787Z,31.80
2022-10-14T06:58:40.406Z,30.02
2022-10-14T07:03:43.965Z,31.48
2022-10-14T07:08:49.029Z,31.73
2022-10-14T07:13:52.594Z,29.75
2022-10-14T07:18:56.175Z,27.02
2022-10-14T07:24:01.222Z,26.98
2022-10-14T07:29:05.621Z,26.80
2022-10-14T07:34:09.236Z,26.40
2022-10-14T07:39:14.391Z,25.90
2022-10-14T07:44:21.316Z,22.98
2022-10-14T07:49:28.769Z,33.60
2022-10-14T07:54:33.722Z,22.30
2022-10-14T07:59:37.317Z,24.13
2022-10-14T08:04:41.122Z,22.08
2022-10-14T08:09:46.148Z,20.85
2022-10-14T08:14:49.776Z,21.25
2022-10-14T08:19:53.479Z,19.40
2022-10-14T08:24:58.459Z,21.30
2022-10-14T08:30:04.923Z,22.77
2022-10-14T08:35:12.865Z,21.30
2022-10-14T08:40:18.144Z,20.48
2022-10-14T08:45:33.222Z,21.17
2022-10-14T08:50:41.218Z,19.95
2022-10-14T08:55:48.468Z,20.58
2022-10-14T09:00:53.940Z,19.50
2022-10-14T09:06:00.637Z,18.55
2022-10-14T09:11:07.255Z,17.80
2022-10-14T09:16:18.659Z,18.88
2022-10-14T09:26:58.217Z,20.23
2022-10-14T09:32:05.307Z,18.48
2022-10-14T09:37:24.967Z,19.35
2022-10-14T09:42:41.833Z,17.70
2022-10-14T09:47:54.255Z,18.65
2022-10-14T09:53:02.870Z,20.10
2022-10-14T09:58:14.524Z,19.42
2022-10-14T10:03:30.228Z,19.52
2022-10-14T10:08:35.175Z,19.17
2022-10-14T10:13:45.681Z,18.90
2022-10-14T10:18:49.700Z,19.77
2022-10-14T10:23:56.782Z,17.88
2022-10-14T10:29:03.642Z,18.48
2022-10-14T10:34:24.204Z,18.00
2022-10-14T10:39:38.202Z,20.33
2022-10-14T10:44:59.001Z,18.40
2022-10-14T10:50:28.919Z,19.60
2022-10-14T10:55:40.269Z,20.13
2022-10-14T11:00:54.114Z,17.55
2022-10-14T11:06:05.609Z,16.35
2022-10-14T11:11:40.063Z,15.98
2022-10-14T11:16:53.691Z,15.38
2022-10-14T11:22:04.960Z,14.73
2022-10-14T11:27:15.023Z,13.93
2022-10-14T11:32:28.756Z,23.85
2022-10-14T11:37:48.085Z,12.98
2022-10-14T11:43:07.134Z,13.70
2022-10-14T11:48:25.804Z,13.35
2022-10-14T11:53:41.977Z,12.85
2022-10-14T11:58:52.328Z,12.75
2022-10-14T12:04:03.783Z,12.07
2022-10-14T12:09:18.222Z,11.55
2022-10-14T12:14:31.054Z,11.43
2022-10-14T12:19:37.920Z,11.32
2022-10-14T12:24:45.190Z,11.07
2022-10-14T12:29:51.020Z,10.25
2022-10-14T12:34:56.949Z,9.73
2022-10-14T12:40:24.261Z,11.13
2022-10-14T12:45:30.063Z,9.63
2022-10-14T12:50:39.136Z,7.97
2022-10-14T12:55:50.539Z,7.38
2022-10-14T13:00:57.454Z,6.10
2022-10-14T13:06:40.813Z,4.93
2022-10-14T13:11:45.860Z,5.13
2022-10-14T13:17:00.481Z,5.72
2022-10-14T13:22:06.956Z,5.25
2022-10-14T13:27:22.847Z,4.72
2022-10-14T13:32:33.930Z,4.43
2022-10-14T13:37:45.613Z,5.13
2022-10-14T13:42:52.984Z,5.82
2022-10-14T13:47:56.554Z,7.95
2022-10-14T13:53:07.959Z,8.85
2022-10-14T13:58:16.484Z,8.93
2022-10-14T14:03:24.431Z,10.25
2022-10-14T14:08:41.616Z,9.57
2022-10-14T14:13:55.844Z,9.82
2022-10-14T14:19:08.697Z,10.20
2022-10-14T14:24:21.804Z,10.32
2022-10-14T14:29:29.803Z,10.18
2022-10-14T14:34:33.410Z,10.73
2022-10-14T14:39:38.748Z,11.13
2022-10-14T14:44:43.513Z,12.57
2022-10-14T14:49:47.391Z,12.73
2022-10-14T14:54:52.350Z,14.43
2022-10-14T15:00:02.466Z,14.73
2022-10-14T15:05:09.221Z,14.07
2022-10-14T15:10:24.978Z,13.63
2022-10-14T15:15:31.246Z,13.30
2022-10-14T15:20:37.232Z,14.43
2022-10-14T15:25:44.139Z,13.23
2022-10-14T15:30:55.769Z,14.32
2022-10-14T15:36:01.918Z,15.27
2022-10-14T15:41:07.212Z,14.32
2022-10-14T15:46:36.655Z,14.52
2022-10-14T15:51:40.185Z,15.23
2022-10-14T15:56:46.519Z,13.20
2022-10-14T16:01:50.793Z,15.30
2022-10-14T16:06:56.569Z,15.02
2022-10-14T16:12:01.601Z,15.43
2022-10-14T16:17:05.275Z,14.68
2022-10-14T16:22:10.355Z,16.00
2022-10-14T16:27:16.581Z,15.43
2022-10-14T16:32:20.119Z,16.23
2022-10-14T16:37:23.992Z,14.10
2022-10-14T16:42:29.415Z,15.07
2022-10-14T16:47:33.136Z,16.23
2022-10-14T16:52:51.398Z,18.67
2022-10-14T16:57:56.267Z,18.67
2022-10-14T17:03:00.299Z,24.77
2022-10-14T17:08:04.225Z,20.55
2022-10-14T17:13:09.314Z,18.48
2022-10-14T17:18:17.726Z,19.08
2022-10-14T17:23:21.553Z,20.65
2022-10-14T17:28:29.223Z,20.30
2022-10-14T17:33:34.896Z,21.75
2022-10-14T17:38:38.464Z,19.55
2022-10-14T17:43:43.570Z,20.70
2022-10-14T17:48:50.737Z,16.88
2022-10-14T17:53:55.557Z,17.98
2022-10-14T17:59:01.716Z,17.42
2022-10-14T18:04:06.939Z,17.92
2022-10-14T18:09:14.899Z,17.55
2022-10-14T18:14:19.777Z,18.50
2022-10-14T18:19:23.557Z,18.48
2022-10-14T18:24:27.291Z,18.13
2022-10-14T18:29:32.268Z,19.38
2022-10-14T18:34:36.080Z,16.52
2022-10-14T18:40:10.620Z,17.15
2022-10-14T18:45:25.280Z,16.13
2022-10-14T18:50:28.881Z,14.60
2022-10-14T18:55:32.489Z,14.40
2022-10-14T19:00:40.444Z,18.33
2022-10-14T19:05:45.008Z,15.10
2022-10-14T19:10:48.562Z,15.55
2022-10-14T19:16:00.838Z,16.25
2022-10-14T19:21:05.626Z,15.05
2022-10-14T19:26:10.683Z,14.75
2022-10-14T19:31:17.297Z,16.58
2022-10-14T19:36:25.285Z,15.80
2022-10-14T19:41:30.906Z,16.63
2022-10-14T19:46:35.897Z,18.45
2022-10-14T19:51:39.940Z,15.73
2022-10-14T19:56:44.120Z,21.65
2022-10-14T20:01:50.802Z,18.85
2022-10-14T20:06:54.451Z,16.85
2022-10-14T20:11:58.180Z,19.20
2022-10-14T20:17:03.840Z,17.75
2022-10-14T20:22:07.595Z,15.55
2022-10-14T20:27:14.020Z,19.83
2022-10-14T20:32:18.972Z,17.38
2022-10-14T20:37:25.707Z,18.90
2022-10-14T20:42:34.339Z,26.92
2022-10-14T20:47:39.397Z,21.10
2022-10-14T20:52:43.044Z,21.83
2022-10-14T20:57:46.693Z,18.25
2022-10-14T21:02:51.618Z,18.33
2022-10-14T21:07:55.100Z,20.30
2022-10-14T21:12:58.593Z,19.02
2022-10-14T21:18:03.457Z,17.13
2022-10-14T21:23:06.914Z,19.08
2022-10-14T21:28:11.406Z,17.05
2022-10-14T21:33:16.247Z,19.75
2022-10-14T21:38:19.729Z,19.25
2022-10-14T21:43:25.470Z,15.77
2022-10-14T21:48:30.543Z,17.70
2022-10-14T21:53:35.056Z,16.08
2022-10-14T21:58:38.755Z,16.67
2022-10-14T22:03:44.725Z,16.25
2022-10-14T22:08:49.952Z,18.98
2022-10-14T22:13:55.068Z,16.65
2022-10-14T22:19:02.409Z,17.48
2022-10-14T22:29:14.789Z,20.80
2022-10-14T22:34:19.666Z,19.67
2022-10-14T22:39:23.197Z,21.58
2022-10-14T22:44:26.783Z,16.73
2022-10-14T22:49:31.709Z,16.92
2022-10-14T22:54:35.400Z,19.88
2022-10-14T22:59:38.874Z,18.40
2022-10-14T23:04:43.689Z,15.80
2022-10-14T23:09:47.238Z,14.45
2022-10-14T23:14:51.341Z,15.57
2022-10-14T23:19:56.137Z,16.08
2022-10-14T23:24:59.620Z,15.18
2022-10-14T23:30:03.259Z,17.08
2022-10-14T23:35:08.943Z,16.15
2022-10-14T23:40:14.310Z,13.80
2022-10-14T23:45:17.821Z,16.65
2022-10-14T23:50:22.777Z,16.10
2022-10-14T23:55:26.356Z,15.40
